sensor_id;sensor_type;location;lat;lon;timestamp;P1;durP1;ratioP1;P2;durP2;ratioP2
6077;SDS011;3067;49.470;10.394;2023-11-21T00:01:18;1.93;;;1.10;;
6077;SDS011;3067;49.470;10.394;2023-11-21T00:03:45;1.03;;;0.97;;
6077;SDS011;3067;49.470;10.394;2023-11-21T00:06:14;1.53;;;1.40;;
6077;SDS011;3067;49.470;10.394;2023-11-21T00:08:40;1.00;;;1.00;;
6077;SDS011;3067;49.470;10.394;2023-11-21T00:11:07;3.40;;;1.20;;
6077;SDS011;3067;49.470;10.394;2023-11-21T00:13:35;1.10;;;1.10;;
6077;SDS011;3067;49.470;10.394;2023-11-21T00:16:03;3.33;;;1.23;;
6077;SDS011;3067;49.470;10.394;2023-11-21T00:18:30;1.73;;;1.23;;
6077;SDS011;3067;49.470;10.394;2023-11-21T00:20:57;1.30;;;1.20;;
6077;SDS011;3067;49.470;10.394;2023-11-21T00:23:25;1.83;;;1.50;;
6077;SDS011;3067;49.470;10.394;2023-11-21T00:25:52;4.63;;;1.63;;
6077;SDS011;3067;49.470;10.394;2023-11-21T00:28:19;1.53;;;1.20;;
6077;SDS011;3067;49.470;10.394;2023-11-21T00:30:46;2.43;;;1.43;;
6077;SDS011;3067;49.470;10.394;2023-11-21T00:33:13;3.43;;;1.47;;
6077;SDS011;3067;49.470;10.394;2023-11-21T00:35:39;4.40;;;1.80;;
6077;SDS011;3067;49.470;10.394;2023-11-21T00:38:06;5.20;;;1.67;;
6077;SDS011;3067;49.470;10.394;2023-11-21T00:40:35;1.50;;;1.33;;
6077;SDS011;3067;49.470;10.394;2023-11-21T00:43:02;1.50;;;1.40;;
6077;SDS011;3067;49.470;10.394;2023-11-21T00:45:30;1.90;;;1.50;;
6077;SDS011;3067;49.470;10.394;2023-11-21T00:47:57;2.03;;;1.93;;
6077;SDS011;3067;49.470;10.394;2023-11-21T00:50:24;4.00;;;1.80;;
6077;SDS011;3067;49.470;10.394;2023-11-21T00:52:52;3.60;;;1.57;;
6077;SDS011;3067;49.470;10.394;2023-11-21T00:55:19;1.70;;;1.60;;
6077;SDS011;3067;49.470;10.394;2023-11-21T00:57:47;1.63;;;1.37;;
6077;SDS011;3067;49.470;10.394;2023-11-21T01:00:14;1.60;;;1.50;;
6077;SDS011;3067;49.470;10.394;2023-11-21T01:02:43;1.50;;;1.40;;
6077;SDS011;3067;49.470;10.394;2023-11-21T01:05:10;2.27;;;1.87;;
6077;SDS011;3067;49.470;10.394;2023-11-21T01:07:37;2.07;;;1.97;;
6077;SDS011;3067;49.470;10.394;2023-11-21T01:10:04;2.10;;;1.87;;
6077;SDS011;3067;49.470;10.394;2023-11-21T01:12:32;2.90;;;2.13;;
6077;SDS011;3067;49.470;10.394;2023-11-21T01:15:01;1.90;;;1.40;;
6077;SDS011;3067;49.470;10.394;2023-11-21T01:17:29;1.90;;;1.60;;
6077;SDS011;3067;49.470;10.394;2023-11-21T01:19:56;1.90;;;1.80;;
6077;SDS011;3067;49.470;10.394;2023-11-21T01:22:24;1.93;;;1.50;;
6077;SDS011;3067;49.470;10.394;2023-11-21T01:24:51;3.93;;;1.70;;
6077;SDS011;3067;49.470;10.394;2023-11-21T01:27:18;2.73;;;1.50;;
6077;SDS011;3067;49.470;10.394;2023-11-21T01:29:45;1.90;;;1.80;;
6077;SDS011;3067;49.470;10.394;2023-11-21T01:32:14;3.53;;;1.57;;
6077;SDS011;3067;49.470;10.394;2023-11-21T01:34:40;1.70;;;1.70;;
6077;SDS011;3067;49.470;10.394;2023-11-21T01:37:07;2.00;;;1.90;;
6077;SDS011;3067;49.470;10.394;2023-11-21T01:39:37;1.70;;;1.60;;
6077;SDS011;3067;49.470;10.394;2023-11-21T01:42:04;1.70;;;1.60;;
6077;SDS011;3067;49.470;10.394;2023-11-21T01:44:32;2.57;;;1.63;;
6077;SDS011;3067;49.470;10.394;2023-11-21T01:46:59;1.80;;;1.70;;
6077;SDS011;3067;49.470;10.394;2023-11-21T01:49:31;2.07;;;1.90;;
6077;SDS011;3067;49.470;10.394;2023-11-21T01:51:58;2.70;;;1.93;;
6077;SDS011;3067;49.470;10.394;2023-11-21T01:54:25;1.93;;;1.73;;
6077;SDS011;3067;49.470;10.394;2023-11-21T01:56:56;1.97;;;1.87;;
6077;SDS011;3067;49.470;10.394;2023-11-21T01:59:28;1.87;;;1.63;;
6077;SDS011;3067;49.470;10.394;2023-11-21T02:02:01;3.33;;;1.67;;
6077;SDS011;3067;49.470;10.394;2023-11-21T02:04:30;2.77;;;1.90;;
6077;SDS011;3067;49.470;10.394;2023-11-21T02:06:58;1.60;;;1.50;;
6077;SDS011;3067;49.470;10.394;2023-11-21T02:09:25;3.90;;;1.83;;
6077;SDS011;3067;49.470;10.394;2023-11-21T02:11:54;1.87;;;1.77;;
6077;SDS011;3067;49.470;10.394;2023-11-21T02:14:21;2.17;;;1.97;;
6077;SDS011;3067;49.470;10.394;2023-11-21T02:16:48;8.50;;;2.17;;
6077;SDS011;3067;49.470;10.394;2023-11-21T02:19:17;3.43;;;2.30;;
6077;SDS011;3067;49.470;10.394;2023-11-21T02:21:50;2.10;;;2.00;;
6077;SDS011;3067;49.470;10.394;2023-11-21T02:24:19;4.93;;;1.80;;
6077;SDS011;3067;49.470;10.394;2023-11-21T02:26:46;3.60;;;2.43;;
6077;SDS011;3067;49.470;10.394;2023-11-21T02:29:13;2.00;;;1.90;;
6077;SDS011;3067;49.470;10.394;2023-11-21T02:31:43;2.13;;;1.97;;
6077;SDS011;3067;49.470;10.394;2023-11-21T02:34:13;2.90;;;2.00;;
6077;SDS011;3067;49.470;10.394;2023-11-21T02:36:40;2.07;;;1.97;;
6077;SDS011;3067;49.470;10.394;2023-11-21T02:39:08;2.10;;;2.00;;
6077;SDS011;3067;49.470;10.394;2023-11-21T02:41:37;2.20;;;2.00;;
6077;SDS011;3067;49.470;10.394;2023-11-21T02:44:04;7.67;;;2.20;;
6077;SDS011;3067;49.470;10.394;2023-11-21T02:46:32;2.37;;;1.93;;
6077;SDS011;3067;49.470;10.394;2023-11-21T02:48:59;2.17;;;2.00;;
6077;SDS011;3067;49.470;10.394;2023-11-21T02:51:27;2.00;;;1.80;;
6077;SDS011;3067;49.470;10.394;2023-11-21T02:53:54;1.70;;;1.60;;
6077;SDS011;3067;49.470;10.394;2023-11-21T02:56:23;1.83;;;1.43;;
6077;SDS011;3067;49.470;10.394;2023-11-21T02:58:52;1.80;;;1.70;;
6077;SDS011;3067;49.470;10.394;2023-11-21T03:01:21;3.07;;;1.70;;
6077;SDS011;3067;49.470;10.394;2023-11-21T03:03:49;1.83;;;1.73;;
6077;SDS011;3067;49.470;10.394;2023-11-21T03:06:16;1.60;;;1.60;;
6077;SDS011;3067;49.470;10.394;2023-11-21T03:08:43;2.03;;;1.83;;
6077;SDS011;3067;49.470;10.394;2023-11-21T03:11:10;1.73;;;1.67;;
6077;SDS011;3067;49.470;10.394;2023-11-21T03:13:38;1.70;;;1.60;;
6077;SDS011;3067;49.470;10.394;2023-11-21T03:16:08;1.80;;;1.70;;
6077;SDS011;3067;49.470;10.394;2023-11-21T03:18:35;1.63;;;1.63;;
6077;SDS011;3067;49.470;10.394;2023-11-21T03:21:02;4.07;;;1.70;;
6077;SDS011;3067;49.470;10.394;2023-11-21T03:23:30;1.80;;;1.70;;
6077;SDS011;3067;49.470;10.394;2023-11-21T03:25:57;1.80;;;1.70;;
6077;SDS011;3067;49.470;10.394;2023-11-21T03:28:25;1.63;;;1.50;;
6077;SDS011;3067;49.470;10.394;2023-11-21T03:30:53;4.30;;;1.60;;
6077;SDS011;3067;49.470;10.394;2023-11-21T03:33:21;1.90;;;1.80;;
6077;SDS011;3067;49.470;10.394;2023-11-21T03:35:48;1.90;;;1.80;;
6077;SDS011;3067;49.470;10.394;2023-11-21T03:38:16;1.90;;;1.80;;
6077;SDS011;3067;49.470;10.394;2023-11-21T03:40:43;2.67;;;1.67;;
6077;SDS011;3067;49.470;10.394;2023-11-21T03:43:09;2.60;;;1.80;;
6077;SDS011;3067;49.470;10.394;2023-11-21T03:45:37;1.53;;;1.43;;
6077;SDS011;3067;49.470;10.394;2023-11-21T03:48:05;1.80;;;1.70;;
6077;SDS011;3067;49.470;10.394;2023-11-21T03:50:34;4.80;;;1.83;;
6077;SDS011;3067;49.470;10.394;2023-11-21T03:53:01;1.90;;;1.80;;
6077;SDS011;3067;49.470;10.394;2023-11-21T03:55:28;1.73;;;1.63;;
6077;SDS011;3067;49.470;10.394;2023-11-21T03:57:56;6.30;;;4.07;;
6077;SDS011;3067;49.470;10.394;2023-11-21T04:00:24;3.37;;;2.50;;
6077;SDS011;3067;49.470;10.394;2023-11-21T04:02:52;2.30;;;2.17;;
6077;SDS011;3067;49.470;10.394;2023-11-21T04:05:19;1.83;;;1.73;;
6077;SDS011;3067;49.470;10.394;2023-11-21T04:07:49;1.77;;;1.67;;
6077;SDS011;3067;49.470;10.394;2023-11-21T04:10:17;3.07;;;2.10;;
6077;SDS011;3067;49.470;10.394;2023-11-21T04:12:44;2.00;;;1.80;;
6077;SDS011;3067;49.470;10.394;2023-11-21T04:15:12;1.40;;;1.40;;
6077;SDS011;3067;49.470;10.394;2023-11-21T04:17:39;1.80;;;1.70;;
6077;SDS011;3067;49.470;10.394;2023-11-21T04:20:07;2.17;;;1.90;;
6077;SDS011;3067;49.470;10.394;2023-11-21T04:22:36;3.03;;;1.80;;
6077;SDS011;3067;49.470;10.394;2023-11-21T04:25:08;2.00;;;1.90;;
6077;SDS011;3067;49.470;10.394;2023-11-21T04:27:36;2.30;;;2.10;;
6077;SDS011;3067;49.470;10.394;2023-11-21T04:30:03;2.80;;;2.27;;
6077;SDS011;3067;49.470;10.394;2023-11-21T04:32:31;1.90;;;1.80;;
6077;SDS011;3067;49.470;10.394;2023-11-21T04:34:58;2.80;;;2.27;;
6077;SDS011;3067;49.470;10.394;2023-11-21T04:37:25;3.97;;;2.10;;
6077;SDS011;3067;49.470;10.394;2023-11-21T04:39:53;2.40;;;2.20;;
6077;SDS011;3067;49.470;10.394;2023-11-21T04:42:21;2.23;;;2.13;;
6077;SDS011;3067;49.470;10.394;2023-11-21T04:44:48;1.83;;;1.73;;
6077;SDS011;3067;49.470;10.394;2023-11-21T04:47:15;1.97;;;1.73;;
6077;SDS011;3067;49.470;10.394;2023-11-21T04:49:45;2.30;;;2.20;;
6077;SDS011;3067;49.470;10.394;2023-11-21T04:52:13;1.70;;;1.60;;
6077;SDS011;3067;49.470;10.394;2023-11-21T04:54:40;1.57;;;1.47;;
6077;SDS011;3067;49.470;10.394;2023-11-21T04:57:08;1.80;;;1.70;;
6077;SDS011;3067;49.470;10.394;2023-11-21T04:59:36;1.60;;;1.50;;
6077;SDS011;3067;49.470;10.394;2023-11-21T05:02:03;1.80;;;1.70;;
6077;SDS011;3067;49.470;10.394;2023-11-21T05:04:30;1.87;;;1.63;;
6077;SDS011;3067;49.470;10.394;2023-11-21T05:06:58;4.93;;;1.70;;
6077;SDS011;3067;49.470;10.394;2023-11-21T05:09:25;2.70;;;1.27;;
6077;SDS011;3067;49.470;10.394;2023-11-21T05:11:53;1.40;;;1.30;;
6077;SDS011;3067;49.470;10.394;2023-11-21T05:14:20;1.40;;;1.30;;
6077;SDS011;3067;49.470;10.394;2023-11-21T05:16:49;1.93;;;1.30;;
6077;SDS011;3067;49.470;10.394;2023-11-21T05:19:17;1.30;;;1.30;;
6077;SDS011;3067;49.470;10.394;2023-11-21T05:21:44;2.40;;;1.30;;
6077;SDS011;3067;49.470;10.394;2023-11-21T05:24:11;1.83;;;1.40;;
6077;SDS011;3067;49.470;10.394;2023-11-21T05:26:38;3.80;;;1.63;;
6077;SDS011;3067;49.470;10.394;2023-11-21T05:29:05;1.57;;;1.57;;
6077;SDS011;3067;49.470;10.394;2023-11-21T05:31:33;1.23;;;1.23;;
6077;SDS011;3067;49.470;10.394;2023-11-21T05:34:02;1.90;;;1.80;;
6077;SDS011;3067;49.470;10.394;2023-11-21T05:36:30;1.83;;;1.73;;
6077;SDS011;3067;49.470;10.394;2023-11-21T05:38:57;1.70;;;1.60;;
6077;SDS011;3067;49.470;10.394;2023-11-21T05:41:24;3.10;;;1.60;;
6077;SDS011;3067;49.470;10.394;2023-11-21T05:43:52;1.50;;;1.50;;
6077;SDS011;3067;49.470;10.394;2023-11-21T05:46:19;3.43;;;1.70;;
6077;SDS011;3067;49.470;10.394;2023-11-21T05:48:46;1.70;;;1.70;;
6077;SDS011;3067;49.470;10.394;2023-11-21T05:51:15;1.60;;;1.50;;
6077;SDS011;3067;49.470;10.394;2023-11-21T05:53:42;1.53;;;1.43;;
6077;SDS011;3067;49.470;10.394;2023-11-21T05:56:09;8.40;;;1.70;;
6077;SDS011;3067;49.470;10.394;2023-11-21T05:58:36;1.83;;;1.73;;
6077;SDS011;3067;49.470;10.394;2023-11-21T06:01:05;1.70;;;1.60;;
6077;SDS011;3067;49.470;10.394;2023-11-21T06:03:34;1.87;;;1.77;;
6077;SDS011;3067;49.470;10.394;2023-11-21T06:06:01;3.10;;;1.30;;
6077;SDS011;3067;49.470;10.394;2023-11-21T06:08:30;2.03;;;1.83;;
6077;SDS011;3067;49.470;10.394;2023-11-21T06:10:57;3.83;;;1.80;;
6077;SDS011;3067;49.470;10.394;2023-11-21T06:13:24;2.40;;;2.30;;
6077;SDS011;3067;49.470;10.394;2023-11-21T06:15:51;1.93;;;1.83;;
6077;SDS011;3067;49.470;10.394;2023-11-21T06:18:19;1.80;;;1.70;;
6077;SDS011;3067;49.470;10.394;2023-11-21T06:20:46;2.40;;;1.80;;
6077;SDS011;3067;49.470;10.394;2023-11-21T06:23:13;2.60;;;1.90;;
6077;SDS011;3067;49.470;10.394;2023-11-21T06:25:43;1.80;;;1.70;;
6077;SDS011;3067;49.470;10.394;2023-11-21T06:28:10;2.00;;;1.87;;
6077;SDS011;3067;49.470;10.394;2023-11-21T06:30:37;1.83;;;1.73;;
6077;SDS011;3067;49.470;10.394;2023-11-21T06:33:04;1.77;;;1.67;;
6077;SDS011;3067;49.470;10.394;2023-11-21T06:35:31;1.67;;;1.53;;
6077;SDS011;3067;49.470;10.394;2023-11-21T06:38:00;5.30;;;1.60;;
6077;SDS011;3067;49.470;10.394;2023-11-21T06:40:28;1.50;;;1.40;;
6077;SDS011;3067;49.470;10.394;2023-11-21T06:42:56;1.90;;;1.80;;
6077;SDS011;3067;49.470;10.394;2023-11-21T06:45:23;7.73;;;1.83;;
6077;SDS011;3067;49.470;10.394;2023-11-21T06:47:50;1.90;;;1.80;;
6077;SDS011;3067;49.470;10.394;2023-11-21T06:50:18;2.13;;;2.07;;
6077;SDS011;3067;49.470;10.394;2023-11-21T06:52:46;1.87;;;1.50;;
6077;SDS011;3067;49.470;10.394;2023-11-21T06:55:13;2.10;;;2.00;;
6077;SDS011;3067;49.470;10.394;2023-11-21T06:57:41;3.90;;;2.10;;
6077;SDS011;3067;49.470;10.394;2023-11-21T07:00:10;2.97;;;2.10;;
6077;SDS011;3067;49.470;10.394;2023-11-21T07:02:38;2.23;;;2.13;;
6077;SDS011;3067;49.470;10.394;2023-11-21T07:05:05;1.90;;;1.80;;
6077;SDS011;3067;49.470;10.394;2023-11-21T07:07:32;1.83;;;1.83;;
6077;SDS011;3067;49.470;10.394;2023-11-21T07:10:00;1.80;;;1.70;;
6077;SDS011;3067;49.470;10.394;2023-11-21T07:12:28;9.20;;;2.10;;
6077;SDS011;3067;49.470;10.394;2023-11-21T07:14:56;2.10;;;2.00;;
6077;SDS011;3067;49.470;10.394;2023-11-21T07:17:24;1.60;;;1.60;;
6077;SDS011;3067;49.470;10.394;2023-11-21T07:19:51;1.90;;;1.80;;
6077;SDS011;3067;49.470;10.394;2023-11-21T07:22:18;2.47;;;1.73;;
6077;SDS011;3067;49.470;10.394;2023-11-21T07:24:47;1.80;;;1.70;;
6077;SDS011;3067;49.470;10.394;2023-11-21T07:27:16;1.90;;;1.80;;
6077;SDS011;3067;49.470;10.394;2023-11-21T07:29:43;1.67;;;1.57;;
6077;SDS011;3067;49.470;10.394;2023-11-21T07:32:10;2.17;;;2.00;;
6077;SDS011;3067;49.470;10.394;2023-11-21T07:34:39;1.70;;;1.60;;
6077;SDS011;3067;49.470;10.394;2023-11-21T07:37:06;3.03;;;1.67;;
6077;SDS011;3067;49.470;10.394;2023-11-21T07:39:34;2.60;;;2.10;;
6077;SDS011;3067;49.470;10.394;2023-11-21T07:42:01;1.80;;;1.70;;
6077;SDS011;3067;49.470;10.394;2023-11-21T07:44:29;1.87;;;1.77;;
6077;SDS011;3067;49.470;10.394;2023-11-21T07:46:56;3.23;;;1.70;;
6077;SDS011;3067;49.470;10.394;2023-11-21T07:49:23;2.00;;;1.90;;
6077;SDS011;3067;49.470;10.394;2023-11-21T07:51:53;3.07;;;2.23;;
6077;SDS011;3067;49.470;10.394;2023-11-21T07:54:20;5.00;;;1.90;;
6077;SDS011;3067;49.470;10.394;2023-11-21T07:56:47;2.60;;;1.90;;
6077;SDS011;3067;49.470;10.394;2023-11-21T07:59:14;2.90;;;2.33;;
6077;SDS011;3067;49.470;10.394;2023-11-21T08:01:42;2.60;;;2.50;;
6077;SDS011;3067;49.470;10.394;2023-11-21T08:04:10;3.03;;;2.83;;
6077;SDS011;3067;49.470;10.394;2023-11-21T08:06:38;2.67;;;2.57;;
6077;SDS011;3067;49.470;10.394;2023-11-21T08:09:08;2.87;;;2.70;;
6077;SDS011;3067;49.470;10.394;2023-11-21T08:11:35;3.30;;;3.00;;
6077;SDS011;3067;49.470;10.394;2023-11-21T08:14:04;2.83;;;2.63;;
6077;SDS011;3067;49.470;10.394;2023-11-21T08:16:31;2.50;;;2.40;;
6077;SDS011;3067;49.470;10.394;2023-11-21T08:18:58;3.17;;;3.00;;
6077;SDS011;3067;49.470;10.394;2023-11-21T08:21:25;3.00;;;2.77;;
6077;SDS011;3067;49.470;10.394;2023-11-21T08:23:54;2.97;;;2.77;;
6077;SDS011;3067;49.470;10.394;2023-11-21T08:26:23;5.73;;;3.10;;
6077;SDS011;3067;49.470;10.394;2023-11-21T08:28:50;3.57;;;2.93;;
6077;SDS011;3067;49.470;10.394;2023-11-21T08:31:23;3.00;;;2.80;;
6077;SDS011;3067;49.470;10.394;2023-11-21T08:33:51;3.30;;;3.00;;
6077;SDS011;3067;49.470;10.394;2023-11-21T08:36:20;3.20;;;2.40;;
6077;SDS011;3067;49.470;10.394;2023-11-21T08:38:48;3.10;;;2.90;;
6077;SDS011;3067;49.470;10.394;2023-11-21T08:41:17;4.20;;;3.00;;
6077;SDS011;3067;49.470;10.394;2023-11-21T08:43:47;4.93;;;2.90;;
6077;SDS011;3067;49.470;10.394;2023-11-21T08:46:15;2.93;;;2.83;;
6077;SDS011;3067;49.470;10.394;2023-11-21T08:48:43;5.40;;;3.40;;
6077;SDS011;3067;49.470;10.394;2023-11-21T08:51:10;4.17;;;3.37;;
6077;SDS011;3067;49.470;10.394;2023-11-21T08:53:39;5.07;;;4.27;;
6077;SDS011;3067;49.470;10.394;2023-11-21T08:56:06;5.97;;;5.33;;
6077;SDS011;3067;49.470;10.394;2023-11-21T08:58:35;4.83;;;4.53;;
6077;SDS011;3067;49.470;10.394;2023-11-21T09:01:05;4.90;;;4.50;;
6077;SDS011;3067;49.470;10.394;2023-11-21T09:03:32;7.60;;;4.23;;
6077;SDS011;3067;49.470;10.394;2023-11-21T09:06:00;4.10;;;3.73;;
6077;SDS011;3067;49.470;10.394;2023-11-21T09:08:27;5.17;;;4.60;;
6077;SDS011;3067;49.470;10.394;2023-11-21T09:10:54;4.67;;;4.27;;
6077;SDS011;3067;49.470;10.394;2023-11-21T09:13:22;4.27;;;3.93;;
6077;SDS011;3067;49.470;10.394;2023-11-21T09:15:50;4.50;;;4.10;;
6077;SDS011;3067;49.470;10.394;2023-11-21T09:18:18;3.60;;;3.40;;
6077;SDS011;3067;49.470;10.394;2023-11-21T09:20:45;3.90;;;3.70;;
6077;SDS011;3067;49.470;10.394;2023-11-21T09:23:12;4.50;;;3.70;;
6077;SDS011;3067;49.470;10.394;2023-11-21T09:25:39;4.43;;;3.17;;
6077;SDS011;3067;49.470;10.394;2023-11-21T09:28:06;3.00;;;2.80;;
6077;SDS011;3067;49.470;10.394;2023-11-21T09:30:33;3.17;;;2.97;;
6077;SDS011;3067;49.470;10.394;2023-11-21T09:33:01;4.60;;;2.60;;
6077;SDS011;3067;49.470;10.394;2023-11-21T09:35:32;3.20;;;2.90;;
6077;SDS011;3067;49.470;10.394;2023-11-21T09:37:59;3.27;;;3.03;;
6077;SDS011;3067;49.470;10.394;2023-11-21T09:40:30;3.00;;;2.90;;
6077;SDS011;3067;49.470;10.394;2023-11-21T09:42:58;3.50;;;3.10;;
6077;SDS011;3067;49.470;10.394;2023-11-21T09:45:25;5.23;;;3.27;;
6077;SDS011;3067;49.470;10.394;2023-11-21T09:47:54;3.57;;;3.37;;
6077;SDS011;3067;49.470;10.394;2023-11-21T09:50:22;4.43;;;4.10;;
6077;SDS011;3067;49.470;10.394;2023-11-21T09:52:56;7.30;;;4.60;;
6077;SDS011;3067;49.470;10.394;2023-11-21T09:55:27;8.00;;;4.90;;
6077;SDS011;3067;49.470;10.394;2023-11-21T09:57:56;9.20;;;4.97;;
6077;SDS011;3067;49.470;10.394;2023-11-21T10:00:26;8.00;;;5.50;;
6077;SDS011;3067;49.470;10.394;2023-11-21T10:02:54;9.27;;;6.37;;
6077;SDS011;3067;49.470;10.394;2023-11-21T10:05:24;8.80;;;7.20;;
6077;SDS011;3067;49.470;10.394;2023-11-21T10:07:51;8.50;;;6.77;;
6077;SDS011;3067;49.470;10.394;2023-11-21T10:10:21;8.20;;;6.40;;
6077;SDS011;3067;49.470;10.394;2023-11-21T10:12:50;8.00;;;5.47;;
6077;SDS011;3067;49.470;10.394;2023-11-21T10:15:21;7.70;;;5.50;;
6077;SDS011;3067;49.470;10.394;2023-11-21T10:17:50;4.83;;;4.43;;
6077;SDS011;3067;49.470;10.394;2023-11-21T10:20:18;4.87;;;3.97;;
6077;SDS011;3067;49.470;10.394;2023-11-21T10:22:46;5.13;;;3.97;;
6077;SDS011;3067;49.470;10.394;2023-11-21T10:25:13;4.37;;;4.07;;
6077;SDS011;3067;49.470;10.394;2023-11-21T10:27:42;5.13;;;4.67;;
6077;SDS011;3067;49.470;10.394;2023-11-21T10:30:09;4.30;;;3.93;;
6077;SDS011;3067;49.470;10.394;2023-11-21T10:32:37;4.37;;;4.00;;
6077;SDS011;3067;49.470;10.394;2023-11-21T10:35:06;4.40;;;3.80;;
6077;SDS011;3067;49.470;10.394;2023-11-21T10:37:35;4.20;;;3.90;;
6077;SDS011;3067;49.470;10.394;2023-11-21T10:40:05;4.17;;;3.87;;
6077;SDS011;3067;49.470;10.394;2023-11-21T10:42:33;4.03;;;3.83;;
6077;SDS011;3067;49.470;10.394;2023-11-21T10:45:01;3.60;;;3.40;;
6077;SDS011;3067;49.470;10.394;2023-11-21T10:47:35;4.07;;;3.87;;
6077;SDS011;3067;49.470;10.394;2023-11-21T10:50:02;4.27;;;3.87;;
6077;SDS011;3067;49.470;10.394;2023-11-21T10:52:34;4.17;;;3.70;;
6077;SDS011;3067;49.470;10.394;2023-11-21T10:55:01;4.40;;;3.93;;
6077;SDS011;3067;49.470;10.394;2023-11-21T10:57:28;4.10;;;3.80;;
6077;SDS011;3067;49.470;10.394;2023-11-21T10:59:56;5.40;;;4.47;;
6077;SDS011;3067;49.470;10.394;2023-11-21T11:02:25;4.37;;;4.07;;
6077;SDS011;3067;49.470;10.394;2023-11-21T11:04:53;6.57;;;4.27;;
6077;SDS011;3067;49.470;10.394;2023-11-21T11:07:23;5.20;;;4.80;;
6077;SDS011;3067;49.470;10.394;2023-11-21T11:09:53;5.33;;;4.93;;
6077;SDS011;3067;49.470;10.394;2023-11-21T11:12:21;5.23;;;4.83;;
6077;SDS011;3067;49.470;10.394;2023-11-21T11:14:48;6.93;;;5.60;;
6077;SDS011;3067;49.470;10.394;2023-11-21T11:17:15;8.23;;;5.53;;
6077;SDS011;3067;49.470;10.394;2023-11-21T11:19:46;4.50;;;4.20;;
6077;SDS011;3067;49.470;10.394;2023-11-21T11:22:20;4.83;;;4.43;;
6077;SDS011;3067;49.470;10.394;2023-11-21T11:25:10;3.90;;;3.70;;
6077;SDS011;3067;49.470;10.394;2023-11-21T11:27:57;4.40;;;4.10;;
6077;SDS011;3067;49.470;10.394;2023-11-21T11:30:35;3.20;;;3.10;;
6077;SDS011;3067;49.470;10.394;2023-11-21T11:33:12;3.37;;;3.17;;
6077;SDS011;3067;49.470;10.394;2023-11-21T11:35:52;3.50;;;3.30;;
6077;SDS011;3067;49.470;10.394;2023-11-21T11:38:23;3.20;;;3.00;;
6077;SDS011;3067;49.470;10.394;2023-11-21T11:40:53;3.53;;;3.33;;
6077;SDS011;3067;49.470;10.394;2023-11-21T11:43:26;4.10;;;3.80;;
6077;SDS011;3067;49.470;10.394;2023-11-21T11:45:55;4.40;;;4.10;;
6077;SDS011;3067;49.470;10.394;2023-11-21T11:48:22;3.93;;;3.70;;
6077;SDS011;3067;49.470;10.394;2023-11-21T11:51:03;3.87;;;3.67;;
6077;SDS011;3067;49.470;10.394;2023-11-21T11:53:37;5.23;;;4.83;;
6077;SDS011;3067;49.470;10.394;2023-11-21T11:56:25;4.90;;;4.03;;
6077;SDS011;3067;49.470;10.394;2023-11-21T11:58:55;3.93;;;3.70;;
6077;SDS011;3067;49.470;10.394;2023-11-21T12:01:24;3.97;;;3.67;;
6077;SDS011;3067;49.470;10.394;2023-11-21T12:06:57;4.57;;;4.20;;
6077;SDS011;3067;49.470;10.394;2023-11-21T12:09:27;4.70;;;4.40;;
6077;SDS011;3067;49.470;10.394;2023-11-21T12:11:56;4.77;;;4.37;;
6077;SDS011;3067;49.470;10.394;2023-11-21T12:14:23;4.60;;;4.30;;
6077;SDS011;3067;49.470;10.394;2023-11-21T12:16:50;4.63;;;4.33;;
6077;SDS011;3067;49.470;10.394;2023-11-21T12:19:18;4.73;;;4.33;;
6077;SDS011;3067;49.470;10.394;2023-11-21T12:21:47;4.63;;;4.23;;
6077;SDS011;3067;49.470;10.394;2023-11-21T12:24:16;4.37;;;4.07;;
6077;SDS011;3067;49.470;10.394;2023-11-21T12:26:44;4.50;;;4.10;;
6077;SDS011;3067;49.470;10.394;2023-11-21T12:29:11;4.60;;;4.20;;
6077;SDS011;3067;49.470;10.394;2023-11-21T12:31:38;4.10;;;3.80;;
6077;SDS011;3067;49.470;10.394;2023-11-21T12:34:06;4.40;;;4.00;;
6077;SDS011;3067;49.470;10.394;2023-11-21T12:36:36;4.20;;;3.53;;
6077;SDS011;3067;49.470;10.394;2023-11-21T12:39:04;4.20;;;3.80;;
6077;SDS011;3067;49.470;10.394;2023-11-21T12:41:35;3.67;;;3.47;;
6077;SDS011;3067;49.470;10.394;2023-11-21T12:44:02;3.30;;;3.20;;
6077;SDS011;3067;49.470;10.394;2023-11-21T12:46:30;3.40;;;3.00;;
6077;SDS011;3067;49.470;10.394;2023-11-21T12:48:59;6.03;;;3.30;;
6077;SDS011;3067;49.470;10.394;2023-11-21T12:51:26;4.00;;;3.70;;
6077;SDS011;3067;49.470;10.394;2023-11-21T12:53:54;4.30;;;4.00;;
6077;SDS011;3067;49.470;10.394;2023-11-21T12:56:23;4.87;;;3.37;;
6077;SDS011;3067;49.470;10.394;2023-11-21T12:58:53;3.87;;;3.57;;
6077;SDS011;3067;49.470;10.394;2023-11-21T13:01:25;4.20;;;3.80;;
6077;SDS011;3067;49.470;10.394;2023-11-21T13:03:56;6.37;;;3.70;;
6077;SDS011;3067;49.470;10.394;2023-11-21T13:06:24;6.13;;;3.97;;
6077;SDS011;3067;49.470;10.394;2023-11-21T13:08:51;6.50;;;3.93;;
6077;SDS011;3067;49.470;10.394;2023-11-21T13:11:19;4.10;;;3.90;;
6077;SDS011;3067;49.470;10.394;2023-11-21T13:13:46;3.70;;;3.33;;
6077;SDS011;3067;49.470;10.394;2023-11-21T13:16:16;4.10;;;3.77;;
6077;SDS011;3067;49.470;10.394;2023-11-21T13:18:46;4.07;;;3.80;;
6077;SDS011;3067;49.470;10.394;2023-11-21T13:21:13;4.50;;;4.10;;
6077;SDS011;3067;49.470;10.394;2023-11-21T13:23:42;3.87;;;3.57;;
6077;SDS011;3067;49.470;10.394;2023-11-21T13:26:11;3.77;;;3.53;;
6077;SDS011;3067;49.470;10.394;2023-11-21T13:28:39;3.47;;;3.27;;
6077;SDS011;3067;49.470;10.394;2023-11-21T13:31:11;4.23;;;3.73;;
6077;SDS011;3067;49.470;10.394;2023-11-21T13:33:52;4.10;;;3.80;;
6077;SDS011;3067;49.470;10.394;2023-11-21T13:36:24;6.50;;;5.87;;
6077;SDS011;3067;49.470;10.394;2023-11-21T13:38:55;8.40;;;7.50;;
6077;SDS011;3067;49.470;10.394;2023-11-21T13:41:23;8.37;;;6.43;;
6077;SDS011;3067;49.470;10.394;2023-11-21T13:43:55;3.20;;;2.80;;
6077;SDS011;3067;49.470;10.394;2023-11-21T13:46:29;4.00;;;3.30;;
6077;SDS011;3067;49.470;10.394;2023-11-21T13:49:03;3.57;;;2.90;;
6077;SDS011;3067;49.470;10.394;2023-11-21T13:51:35;2.87;;;2.60;;
6077;SDS011;3067;49.470;10.394;2023-11-21T13:54:05;3.67;;;2.70;;
6077;SDS011;3067;49.470;10.394;2023-11-21T13:56:34;4.00;;;2.80;;
6077;SDS011;3067;49.470;10.394;2023-11-21T13:59:02;2.60;;;2.40;;
6077;SDS011;3067;49.470;10.394;2023-11-21T14:01:38;4.10;;;2.80;;
6077;SDS011;3067;49.470;10.394;2023-11-21T14:04:21;2.87;;;2.73;;
6077;SDS011;3067;49.470;10.394;2023-11-21T14:07:04;2.60;;;2.50;;
6077;SDS011;3067;49.470;10.394;2023-11-21T14:09:50;2.90;;;2.70;;
6077;SDS011;3067;49.470;10.394;2023-11-21T14:12:18;2.30;;;2.10;;
6077;SDS011;3067;49.470;10.394;2023-11-21T14:14:45;2.37;;;2.17;;
6077;SDS011;3067;49.470;10.394;2023-11-21T14:17:12;2.70;;;2.60;;
6077;SDS011;3067;49.470;10.394;2023-11-21T14:19:41;3.13;;;2.83;;
6077;SDS011;3067;49.470;10.394;2023-11-21T14:22:09;2.80;;;2.60;;
6077;SDS011;3067;49.470;10.394;2023-11-21T14:24:36;2.47;;;2.37;;
6077;SDS011;3067;49.470;10.394;2023-11-21T14:27:08;2.97;;;2.60;;
6077;SDS011;3067;49.470;10.394;2023-11-21T14:29:36;2.80;;;2.67;;
6077;SDS011;3067;49.470;10.394;2023-11-21T14:32:05;3.70;;;3.00;;
6077;SDS011;3067;49.470;10.394;2023-11-21T14:34:33;3.60;;;2.80;;
6077;SDS011;3067;49.470;10.394;2023-11-21T14:37:01;2.20;;;1.93;;
6077;SDS011;3067;49.470;10.394;2023-11-21T14:39:29;2.10;;;2.00;;
6077;SDS011;3067;49.470;10.394;2023-11-21T14:42:00;3.57;;;2.30;;
6077;SDS011;3067;49.470;10.394;2023-11-21T14:44:28;4.37;;;2.20;;
6077;SDS011;3067;49.470;10.394;2023-11-21T14:47:00;3.80;;;2.20;;
6077;SDS011;3067;49.470;10.394;2023-11-21T14:49:32;6.20;;;2.70;;
6077;SDS011;3067;49.470;10.394;2023-11-21T14:52:14;3.50;;;2.53;;
6077;SDS011;3067;49.470;10.394;2023-11-21T14:54:56;2.93;;;2.43;;
6077;SDS011;3067;49.470;10.394;2023-11-21T14:57:44;5.07;;;2.30;;
6077;SDS011;3067;49.470;10.394;2023-11-21T15:00:15;2.20;;;2.10;;
6077;SDS011;3067;49.470;10.394;2023-11-21T15:03:03;3.30;;;1.93;;
6077;SDS011;3067;49.470;10.394;2023-11-21T15:05:29;6.40;;;2.20;;
6077;SDS011;3067;49.470;10.394;2023-11-21T15:08:01;2.80;;;2.60;;
6077;SDS011;3067;49.470;10.394;2023-11-21T15:10:39;3.97;;;2.37;;
6077;SDS011;3067;49.470;10.394;2023-11-21T15:13:13;4.10;;;2.37;;